Airfield :
LOGIN :

Register | Disclaimer

   EN    FR    IT 

 










Legend :    VFR   Marginal VFR   IFR   Intensive IFR   Very Intensive IFR
Visi :
Ceiling :
>= 8 km
>= 3000ft
5 to 8 km
1000 to 3000 ft
1500m to 5 km
500 to 1000 ft
800 to 1500m
200 to 500 ft
< 800m
< 200 ft
Symbols :   Thunderstorms  Fog  Heavy snow  Heavy precipitations  Wind > 20 kt
SIGMETs :     Misc.  Thunderstorms  Icing  Turbulence  Mountain Waves  Volcanic Ashes






- Airport Elevation : 433 ft


LFOC - Chateaudun

CURRENT METAR :
  • 210500Z AUTO 03005KT 4300 BR ////// M01/M01 Q1040

EXPIRED METARs :
  • 210430Z AUTO 02004KT 4300 BR ////// M01/M02 Q1040
  • 210400Z AUTO 01005KT 4600 BR ////// M01/M01 Q1040
  • 210330Z AUTO 02005KT 5000 BR ////// M00/M01 Q1040
  • 210300Z AUTO 02007KT 4800 BR ////// M00/M01 Q1040
  • 210230Z AUTO 02007KT 5000 BR ////// M00/M01 Q1041

TAF AMD TAF LFOC
Valid from the 21 at 05:00 until the 22 at 03:00 UTC


210500Z 2105/2203 04010KT CAVOK
TEMPO 2105/2109 4000 BR



MET'MAP, your aeronautical weather chart ! - Copyright ORBIFLY December 2007 - Disclaimer

ORBIFLY MET'MAP TEAM :

Programming & Development : Alexandra Zaïnal
Concept & original design : Baudouin d'Aumeries
Assistance for programming : Marc-Olivier Méhu
Technical & hardware support : Manuel Goepfert

Contact : metmap@orbifly.com




SOURCES & CREDITS :

   NOAA